This is the latest recevied weather packets stored in our database for station/object WY7ATH-2. If no packets are shown the sender has not sent any weather packets the latest 10 day(s).
| Time | Temp. | Humidity | Pressure | Rain* | Wind** | Luminosity | Snow |
|---|---|---|---|---|---|---|---|
| 1777770732 | 14.44° C | - | - | 10.41 mm | 0 m/s | - | - |
| 1777769538 | 15.56° C | - | - | 12.19 mm | 0 m/s | - | - |
| 1777768941 | 16.11° C | - | - | 12.19 mm | 0 m/s | - | - |
| 1777767147 | 17.22° C | - | - | 12.19 mm | 0 m/s | - | - |
| 1777766549 | 17.22° C | - | - | 12.19 mm | 0 m/s | - | - |
| 1777761770 | 19.44° C | - | - | 16 mm | 0 m/s | - | - |
| 1777761173 | 20° C | - | - | 16 mm | 0 m/s | - | - |
| 1777760667 | 8.33° C | - | - | 4.57 mm | 0 m/s | - | - |
| 1777760659 | 7.22° C | - | - | 4.57 mm | 0 m/s | - | - |
| 1777760576 | 20° C | - | - | 16 mm | 0 m/s | - | - |
| 1777759976 | 21.11° C | - | - | 16 mm | 0 m/s | - | - |
| 1777757588 | 21.67° C | - | - | 17.78 mm | 0 m/s | - | - |
| 1777754002 | 22.22° C | - | - | 19.05 mm | 0 m/s | - | - |
| 1777753406 | 21.11° C | - | - | 19.05 mm | 0 m/s | - | - |
| 1777752805 | 20° C | - | - | 19.05 mm | 0 m/s | - | - |
| 1777752208 | 18.33° C | - | - | 19.05 mm | 0 m/s | - | - |
| 1777751611 | 21.67° C | - | - | 19.56 mm | 0 m/s | - | - |
| 1777750417 | 22.78° C | - | - | 19.56 mm | 0 m/s | - | - |
| 1777749820 | 21.67° C | - | - | 19.56 mm | 0 m/s | - | - |
| 1777749220 | 18.33° C | - | - | 19.56 mm | 0 m/s | - | - |
| 1777748026 | 19.44° C | - | - | 19.05 mm | 0 m/s | - | - |
| 1777747429 | 20° C | - | - | 19.05 mm | 0 m/s | - | - |
| 1777746235 | 20.56° C | - | - | 19.05 mm | 0 m/s | - | - |
| 1777745038 | 18.89° C | - | - | 19.05 mm | 0 m/s | - | - |
| 1777744441 | 18.33° C | - | - | 17.53 mm | 0 m/s | - | - |
* Rain latest hour (hover to see other rain measurements)
** Current wind speed in m/s (hover to see current wind gust speed)